createdAt,value
2023-05-21T00:01:48.567Z,23.40
2023-05-21T00:04:19.446Z,26.40
2023-05-21T00:06:53.059Z,23.70
2023-05-21T00:09:23.723Z,24.20
2023-05-21T00:11:54.404Z,21.80
2023-05-21T00:14:24.795Z,25.30
2023-05-21T00:17:06.690Z,20.60
2023-05-21T00:19:39.896Z,23.10
2023-05-21T00:22:17.956Z,22.10
2023-05-21T00:24:57.346Z,21.60
2023-05-21T00:27:30.650Z,21.80
2023-05-21T00:30:10.751Z,23.70
2023-05-21T00:32:44.740Z,21.90
2023-05-21T00:35:15.363Z,25.00
2023-05-21T00:37:47.703Z,21.30
2023-05-21T00:40:19.799Z,21.90
2023-05-21T00:42:50.414Z,23.40
2023-05-21T00:45:24.226Z,23.00
2023-05-21T00:47:55.697Z,20.70
2023-05-21T00:50:26.610Z,22.20
2023-05-21T00:52:59.974Z,24.60
2023-05-21T00:58:11.345Z,21.40
2023-05-21T01:00:42.134Z,22.70
2023-05-21T01:03:23.414Z,22.10
2023-05-21T01:05:59.937Z,23.90
2023-05-21T01:08:37.733Z,23.70
2023-05-21T01:11:10.513Z,24.80
2023-05-21T01:13:42.231Z,22.00
2023-05-21T01:16:14.172Z,22.30
2023-05-21T01:18:45.253Z,23.30
2023-05-21T01:21:19.627Z,21.50
2023-05-21T01:24:02.440Z,23.20
2023-05-21T01:29:16.716Z,25.10
2023-05-21T01:32:00.808Z,25.30
2023-05-21T01:34:35.997Z,25.40
2023-05-21T01:37:19.127Z,22.90
2023-05-21T01:39:57.096Z,22.90
2023-05-21T01:42:30.511Z,22.20
2023-05-21T01:45:15.060Z,22.90
2023-05-21T01:47:51.581Z,22.50
2023-05-21T01:50:33.821Z,23.40
2023-05-21T01:53:06.020Z,22.80
2023-05-21T01:55:47.477Z,23.10
2023-05-21T01:58:19.027Z,23.20
2023-05-21T02:00:51.077Z,22.90
2023-05-21T02:03:24.345Z,22.80
2023-05-21T02:10:56.388Z,20.70
2023-05-21T02:13:30.655Z,21.90
2023-05-21T02:16:04.209Z,22.80
2023-05-21T02:18:36.445Z,22.10
2023-05-21T02:21:09.298Z,22.00
2023-05-21T02:23:45.662Z,23.00
2023-05-21T02:26:17.527Z,22.50
2023-05-21T02:28:53.085Z,23.10
2023-05-21T02:31:26.058Z,22.30
2023-05-21T02:34:00.452Z,25.10
2023-05-21T02:36:41.528Z,24.20
2023-05-21T02:39:14.333Z,25.10
2023-05-21T02:41:50.526Z,24.50
2023-05-21T02:44:38.296Z,24.00
2023-05-21T02:47:12.907Z,23.70
2023-05-21T02:50:03.801Z,24.20
2023-05-21T02:52:45.365Z,23.30
2023-05-21T02:55:16.786Z,21.40
2023-05-21T03:00:20.076Z,22.30
2023-05-21T03:03:11.714Z,26.70
2023-05-21T03:05:53.109Z,24.40
2023-05-21T03:08:35.634Z,22.80
2023-05-21T03:11:25.200Z,24.90
2023-05-21T03:13:55.831Z,24.90
2023-05-21T03:16:38.116Z,21.40
2023-05-21T03:19:26.645Z,24.00
2023-05-21T03:21:57.486Z,24.30
2023-05-21T03:24:31.813Z,23.80
2023-05-21T03:27:16.809Z,24.30
2023-05-21T03:29:56.684Z,26.30
2023-05-21T03:32:38.836Z,23.80
2023-05-21T03:35:14.079Z,22.60
2023-05-21T03:37:47.808Z,25.30
2023-05-21T03:40:29.938Z,25.70
2023-05-21T03:46:29.006Z,22.50
2023-05-21T03:49:19.821Z,25.10
2023-05-21T03:52:01.868Z,23.50
2023-05-21T03:54:32.529Z,23.20
2023-05-21T03:57:23.185Z,24.60
2023-05-21T03:59:58.989Z,23.70
2023-05-21T04:02:29.825Z,23.60
2023-05-21T04:05:00.506Z,25.10
2023-05-21T04:07:31.142Z,25.10
2023-05-21T04:10:12.397Z,24.40
2023-05-21T04:12:49.206Z,24.10
2023-05-21T04:15:40.007Z,23.30
2023-05-21T04:18:15.577Z,24.20
2023-05-21T04:20:46.423Z,22.10
2023-05-21T04:23:28.617Z,22.70
2023-05-21T04:26:19.447Z,23.80
2023-05-21T04:28:50.504Z,22.40
2023-05-21T04:31:29.923Z,25.10
2023-05-21T04:34:04.219Z,24.30
2023-05-21T04:36:37.980Z,22.60
2023-05-21T04:39:22.490Z,23.90
2023-05-21T04:41:54.908Z,24.30
2023-05-21T04:44:25.483Z,24.10
2023-05-21T04:47:09.203Z,24.00
2023-05-21T04:49:42.988Z,22.90
2023-05-21T04:52:34.672Z,23.70
2023-05-21T04:55:09.768Z,21.50
2023-05-21T04:57:53.701Z,25.20
2023-05-21T05:00:37.861Z,24.40
2023-05-21T05:03:09.153Z,23.50
2023-05-21T05:05:47.247Z,22.90
2023-05-21T05:08:18.127Z,22.60
2023-05-21T05:10:57.701Z,22.70
2023-05-21T05:13:38.303Z,22.20
2023-05-21T05:16:09.589Z,22.90
2023-05-21T05:18:51.909Z,23.70
2023-05-21T05:23:53.952Z,23.90
2023-05-21T05:26:44.739Z,24.50
2023-05-21T05:29:15.572Z,23.30
2023-05-21T05:31:46.221Z,22.50
2023-05-21T05:34:18.384Z,23.20
2023-05-21T05:36:48.998Z,22.00
2023-05-21T05:39:19.903Z,24.50
2023-05-21T05:41:54.009Z,23.80
2023-05-21T05:44:34.794Z,23.20
2023-05-21T05:47:10.637Z,24.00
2023-05-21T05:49:56.346Z,24.00
2023-05-21T05:52:47.288Z,20.30
2023-05-21T05:55:22.023Z,21.20
2023-05-21T05:58:01.399Z,23.10
2023-05-21T06:00:32.170Z,23.10
2023-05-21T06:03:02.855Z,21.20
2023-05-21T06:05:34.071Z,23.00
2023-05-21T06:08:14.955Z,25.80
2023-05-21T06:10:45.472Z,24.10
2023-05-21T06:13:15.852Z,25.50
2023-05-21T06:15:55.536Z,24.90
2023-05-21T06:18:36.496Z,23.90
2023-05-21T06:21:07.415Z,23.60
2023-05-21T06:26:10.748Z,22.30
2023-05-21T06:28:41.343Z,22.00
2023-05-21T06:31:23.365Z,23.60
2023-05-21T06:33:54.498Z,25.40
2023-05-21T06:39:01.268Z,21.10
2023-05-21T06:41:32.287Z,23.90
2023-05-21T06:44:07.201Z,23.20
2023-05-21T06:47:16.049Z,25.30
2023-05-21T06:49:47.496Z,22.20
2023-05-21T06:52:18.631Z,21.10
2023-05-21T06:54:50.160Z,21.80
2023-05-21T06:57:22.759Z,22.90
2023-05-21T07:02:22.486Z,24.50
2023-05-21T07:04:53.680Z,23.10
2023-05-21T07:07:24.186Z,21.50
2023-05-21T07:09:55.013Z,22.20
2023-05-21T07:12:25.526Z,22.80
2023-05-21T07:14:57.571Z,19.70
2023-05-21T07:17:29.997Z,22.90
2023-05-21T07:20:03.327Z,21.90
2023-05-21T07:22:34.138Z,20.40
2023-05-21T07:25:05.093Z,21.10
2023-05-21T07:27:35.606Z,24.60
2023-05-21T07:30:08.826Z,21.60
2023-05-21T07:32:39.256Z,19.60
2023-05-21T07:35:10.554Z,18.80
2023-05-21T07:37:41.141Z,21.20
2023-05-21T07:40:13.604Z,24.50
2023-05-21T07:42:45.570Z,20.30
2023-05-21T07:45:16.364Z,19.90
2023-05-21T07:47:49.658Z,21.40
2023-05-21T07:50:20.510Z,19.70
2023-05-21T07:52:51.297Z,19.70
2023-05-21T07:55:23.739Z,20.10
2023-05-21T07:57:54.193Z,20.50
2023-05-21T08:00:30.336Z,19.10
2023-05-21T08:03:02.575Z,19.80
2023-05-21T08:05:33.699Z,20.60
2023-05-21T08:08:05.178Z,20.70
2023-05-21T08:10:37.107Z,21.70
2023-05-21T08:13:07.817Z,19.80
2023-05-21T08:15:38.421Z,21.80
2023-05-21T08:18:09.182Z,20.20
2023-05-21T08:20:39.993Z,20.60
2023-05-21T08:23:10.851Z,18.70
2023-05-21T08:25:45.076Z,20.10
2023-05-21T08:28:16.078Z,23.60
2023-05-21T08:30:46.698Z,18.80
2023-05-21T08:33:18.399Z,17.50
2023-05-21T08:35:51.560Z,19.70
2023-05-21T08:41:02.077Z,19.50
2023-05-21T08:43:34.750Z,19.60
2023-05-21T08:46:07.894Z,21.50
2023-05-21T08:48:40.668Z,20.70
2023-05-21T08:51:11.099Z,21.70
2023-05-21T08:53:46.622Z,20.20
2023-05-21T08:56:21.212Z,19.20
2023-05-21T08:58:56.716Z,19.50
2023-05-21T09:01:32.155Z,17.70
2023-05-21T09:04:20.868Z,19.20
2023-05-21T09:06:58.016Z,19.30
2023-05-21T09:10:08.405Z,17.80
2023-05-21T09:12:39.131Z,17.10
2023-05-21T09:15:11.823Z,19.70
2023-05-21T09:17:42.638Z,20.10
2023-05-21T09:20:34.277Z,18.60
2023-05-21T09:23:12.432Z,17.30
2023-05-21T09:25:46.242Z,18.60
2023-05-21T09:28:20.513Z,17.70
2023-05-21T09:30:54.077Z,16.50
2023-05-21T09:33:31.376Z,17.80
2023-05-21T09:36:02.131Z,17.90
2023-05-21T09:38:34.934Z,17.40
2023-05-21T09:41:08.431Z,18.20
2023-05-21T09:43:39.116Z,15.60
2023-05-21T09:46:09.955Z,17.30
2023-05-21T09:48:42.103Z,15.90
2023-05-21T09:51:21.356Z,14.20
2023-05-21T09:53:54.652Z,13.70
2023-05-21T09:56:26.329Z,13.30
2023-05-21T09:58:59.208Z,15.30
2023-05-21T10:01:31.801Z,13.30
2023-05-21T10:04:04.154Z,13.30
2023-05-21T10:06:37.575Z,12.80
2023-05-21T10:09:11.606Z,12.40
2023-05-21T10:11:44.932Z,12.50
2023-05-21T10:14:18.072Z,12.40
2023-05-21T10:16:50.183Z,13.10
2023-05-21T10:19:23.460Z,12.80
2023-05-21T10:21:57.224Z,13.00
2023-05-21T10:24:28.264Z,12.70
2023-05-21T10:26:58.956Z,12.80
2023-05-21T10:32:00.172Z,12.90
2023-05-21T10:34:32.107Z,11.50
2023-05-21T10:37:05.634Z,12.70
2023-05-21T10:39:36.641Z,12.60
2023-05-21T10:42:22.319Z,12.20
2023-05-21T10:45:13.294Z,12.60
2023-05-21T10:48:06.543Z,12.40
2023-05-21T10:51:06.539Z,11.80
2023-05-21T10:53:57.205Z,12.00
2023-05-21T10:56:30.225Z,12.40
2023-05-21T10:59:15.157Z,12.60
2023-05-21T11:01:46.298Z,12.50
2023-05-21T11:04:17.557Z,11.60
2023-05-21T11:06:50.634Z,11.80
2023-05-21T11:09:21.285Z,12.20
2023-05-21T11:14:35.752Z,13.30
2023-05-21T11:17:11.205Z,11.90
2023-05-21T11:19:43.411Z,12.60
2023-05-21T11:22:24.715Z,12.30
2023-05-21T11:24:56.854Z,11.60
2023-05-21T11:27:38.028Z,11.40
2023-05-21T11:30:10.787Z,12.40
2023-05-21T11:32:42.300Z,11.80
2023-05-21T11:35:16.436Z,11.90
2023-05-21T11:37:54.799Z,10.70
2023-05-21T11:40:30.548Z,12.80
2023-05-21T11:43:00.928Z,11.60
2023-05-21T11:48:04.686Z,11.20
2023-05-21T11:50:35.816Z,10.60
2023-05-21T11:53:07.609Z,11.30
2023-05-21T11:55:43.452Z,11.20
2023-05-21T11:58:16.673Z,11.40
2023-05-21T12:00:47.309Z,10.90
2023-05-21T12:03:18.263Z,10.20
2023-05-21T12:05:49.442Z,9.90
2023-05-21T12:08:25.932Z,9.30
2023-05-21T12:11:01.711Z,10.10
2023-05-21T12:13:32.423Z,9.70
2023-05-21T12:16:05.202Z,10.60
2023-05-21T12:18:39.566Z,9.80
2023-05-21T12:21:12.536Z,9.90
2023-05-21T12:23:43.112Z,10.90
2023-05-21T12:31:18.307Z,10.60
2023-05-21T12:33:50.371Z,10.30
2023-05-21T12:36:29.558Z,10.40
2023-05-21T12:39:00.512Z,10.40
2023-05-21T12:41:32.089Z,10.30
2023-05-21T12:44:05.015Z,10.20
2023-05-21T12:46:35.634Z,11.80
2023-05-21T12:49:06.289Z,10.70
2023-05-21T12:54:15.675Z,10.10
2023-05-21T12:56:49.086Z,10.70
2023-05-21T12:59:19.423Z,11.20
2023-05-21T13:01:53.098Z,10.60
2023-05-21T13:04:24.138Z,10.80
2023-05-21T13:06:54.458Z,10.90
2023-05-21T13:09:25.075Z,11.00
2023-05-21T13:11:55.737Z,10.30
2023-05-21T13:14:26.140Z,9.80
2023-05-21T13:19:25.766Z,9.70
2023-05-21T13:21:56.586Z,9.60
2023-05-21T13:26:56.000Z,10.00
2023-05-21T13:31:55.711Z,9.30
2023-05-21T13:36:56.019Z,9.00
2023-05-21T13:41:59.249Z,10.20
2023-05-21T13:44:29.735Z,9.60
2023-05-21T13:47:00.258Z,9.90
2023-05-21T13:49:30.789Z,10.80
2023-05-21T13:54:31.811Z,11.00
2023-05-21T13:57:02.694Z,9.40
2023-05-21T13:59:33.861Z,9.30
2023-05-21T14:02:04.621Z,9.80
2023-05-21T14:04:36.177Z,9.90
2023-05-21T14:07:08.438Z,10.40
2023-05-21T14:09:38.873Z,9.90
2023-05-21T14:14:38.407Z,9.70
2023-05-21T14:17:08.956Z,10.10
2023-05-21T14:19:39.374Z,9.20
2023-05-21T14:24:38.549Z,9.50
2023-05-21T14:29:38.029Z,9.10
2023-05-21T14:34:38.581Z,8.60
2023-05-21T14:37:09.213Z,8.60
2023-05-21T14:39:39.592Z,9.40
2023-05-21T14:42:10.133Z,9.50
2023-05-21T14:44:40.662Z,9.90
2023-05-21T14:47:11.063Z,9.70
2023-05-21T14:49:41.679Z,10.90
2023-05-21T14:52:12.001Z,8.90
2023-05-21T14:54:42.333Z,8.70
2023-05-21T14:57:12.640Z,9.40
2023-05-21T15:02:12.610Z,10.50
2023-05-21T15:04:43.081Z,8.80
2023-05-21T15:07:13.619Z,9.60
2023-05-21T15:09:44.030Z,9.90
2023-05-21T15:14:43.862Z,9.30
2023-05-21T15:17:14.342Z,9.70
2023-05-21T15:22:13.850Z,8.30
2023-05-21T15:24:44.922Z,9.60
2023-05-21T15:27:15.323Z,10.60
2023-05-21T15:29:46.261Z,10.20
2023-05-21T15:32:16.679Z,10.20
2023-05-21T15:34:47.400Z,9.00
2023-05-21T15:37:17.921Z,10.90
2023-05-21T15:42:19.284Z,10.50
2023-05-21T15:44:49.731Z,8.80
2023-05-21T15:47:20.377Z,9.70
2023-05-21T15:49:51.607Z,10.30
2023-05-21T15:52:22.255Z,9.20
2023-05-21T15:57:22.034Z,9.00
2023-05-21T15:59:52.684Z,9.80
2023-05-21T16:02:23.317Z,10.30
2023-05-21T16:04:53.780Z,9.40
2023-05-21T16:07:25.369Z,10.80
2023-05-21T16:09:55.757Z,8.90
2023-05-21T16:12:26.248Z,9.80
2023-05-21T16:14:56.772Z,9.50
2023-05-21T16:17:27.272Z,8.80
2023-05-21T16:19:57.704Z,9.20
2023-05-21T16:22:28.096Z,10.40
2023-05-21T16:24:58.507Z,8.50
2023-05-21T16:27:29.123Z,9.10
2023-05-21T16:29:59.522Z,10.00
2023-05-21T16:32:30.065Z,10.20
2023-05-21T16:35:00.870Z,10.20
2023-05-21T16:37:31.298Z,11.10
2023-05-21T16:40:01.691Z,9.20
2023-05-21T16:42:31.948Z,9.50
2023-05-21T16:45:02.527Z,9.10
2023-05-21T16:47:33.077Z,9.60
2023-05-21T16:50:03.549Z,9.50
2023-05-21T16:52:33.890Z,9.60
2023-05-21T16:55:05.098Z,9.70
2023-05-21T16:57:36.063Z,9.70
2023-05-21T17:00:07.891Z,9.10
2023-05-21T17:02:39.256Z,9.50
2023-05-21T17:05:10.673Z,8.80
2023-05-21T17:07:41.148Z,9.30
2023-05-21T17:10:12.191Z,9.10
2023-05-21T17:12:42.885Z,9.40
2023-05-21T17:15:13.450Z,8.80
2023-05-21T17:17:44.005Z,9.40
2023-05-21T17:20:15.733Z,10.10
2023-05-21T17:22:46.292Z,10.40
2023-05-21T17:25:16.753Z,8.60
2023-05-21T17:27:47.323Z,9.60
2023-05-21T17:30:18.115Z,9.00
2023-05-21T17:35:17.814Z,9.80
2023-05-21T17:37:48.450Z,9.10
2023-05-21T17:40:21.344Z,9.70
2023-05-21T17:42:52.028Z,10.10
2023-05-21T17:45:25.120Z,9.40
2023-05-21T17:47:59.618Z,10.80
2023-05-21T17:50:30.831Z,10.90
2023-05-21T17:53:01.919Z,10.50
2023-05-21T17:55:32.344Z,10.00
2023-05-21T17:58:02.864Z,9.80
2023-05-21T18:00:33.479Z,9.50
2023-05-21T18:03:04.216Z,11.00
2023-05-21T18:05:34.854Z,9.60
2023-05-21T18:08:07.026Z,10.10
2023-05-21T18:10:39.414Z,10.40
2023-05-21T18:13:09.831Z,9.80
2023-05-21T18:15:40.257Z,11.10
2023-05-21T18:18:19.854Z,9.40
2023-05-21T18:23:21.434Z,10.20
2023-05-21T18:25:51.860Z,11.00
2023-05-21T18:28:22.851Z,11.90
2023-05-21T18:33:22.179Z,11.20
2023-05-21T18:35:52.510Z,10.80
2023-05-21T18:38:23.005Z,12.70
2023-05-21T18:40:53.633Z,10.80
2023-05-21T18:43:24.123Z,10.10
2023-05-21T18:45:54.569Z,10.60
2023-05-21T18:48:25.053Z,10.10
2023-05-21T18:50:55.821Z,10.50
2023-05-21T18:53:26.478Z,10.20
2023-05-21T18:55:56.999Z,11.20
2023-05-21T18:58:29.281Z,10.40
2023-05-21T19:01:00.226Z,11.40
2023-05-21T19:03:32.222Z,10.70
2023-05-21T19:06:03.520Z,11.30
2023-05-21T19:08:33.979Z,11.00
2023-05-21T19:11:04.548Z,12.20
2023-05-21T19:13:35.153Z,11.50
2023-05-21T19:16:10.866Z,11.80
2023-05-21T19:18:43.482Z,11.70
2023-05-21T19:21:14.532Z,12.10
2023-05-21T19:23:52.755Z,11.40
2023-05-21T19:26:24.643Z,12.50
2023-05-21T19:28:55.528Z,11.50
2023-05-21T19:31:26.356Z,12.40
2023-05-21T19:33:56.784Z,12.00
2023-05-21T19:36:32.592Z,11.90
2023-05-21T19:39:09.115Z,13.50
2023-05-21T19:41:39.979Z,12.00
2023-05-21T19:44:10.634Z,11.90
2023-05-21T19:46:41.104Z,10.90
2023-05-21T19:49:13.971Z,14.30
2023-05-21T19:51:44.978Z,12.90
2023-05-21T19:54:15.617Z,12.10
2023-05-21T19:56:46.358Z,14.70
2023-05-21T19:59:17.025Z,13.90
2023-05-21T20:01:47.762Z,14.60
2023-05-21T20:04:18.680Z,14.10
2023-05-21T20:06:59.283Z,13.30
2023-05-21T20:09:29.764Z,11.20
2023-05-21T20:12:00.336Z,14.00
2023-05-21T20:14:33.570Z,13.70
2023-05-21T20:17:05.712Z,13.40
2023-05-21T20:19:37.877Z,12.00
2023-05-21T20:22:08.841Z,13.40
2023-05-21T20:24:39.277Z,11.20
2023-05-21T20:27:12.487Z,13.30
2023-05-21T20:29:44.689Z,11.80
2023-05-21T20:32:15.119Z,14.50
2023-05-21T20:35:02.254Z,14.00
2023-05-21T20:37:33.961Z,12.50
2023-05-21T20:40:07.058Z,12.90
2023-05-21T20:42:38.045Z,13.90
2023-05-21T20:45:10.291Z,13.50
2023-05-21T20:47:41.422Z,12.70
2023-05-21T20:52:45.500Z,13.00
2023-05-21T20:55:17.979Z,13.90
2023-05-21T20:57:48.484Z,14.60
2023-05-21T21:00:19.891Z,13.70
2023-05-21T21:02:50.483Z,13.80
2023-05-21T21:05:21.150Z,13.80
2023-05-21T21:07:55.492Z,14.00
2023-05-21T21:10:26.490Z,12.70
2023-05-21T21:12:57.068Z,13.80
2023-05-21T21:15:27.721Z,13.80
2023-05-21T21:17:58.403Z,14.80
2023-05-21T21:20:29.304Z,13.60
2023-05-21T21:22:59.795Z,15.70
2023-05-21T21:25:30.467Z,12.00
2023-05-21T21:28:00.983Z,15.40
2023-05-21T21:30:31.575Z,13.10
2023-05-21T21:33:02.485Z,14.50
2023-05-21T21:35:32.975Z,12.10
2023-05-21T21:38:07.583Z,12.30
2023-05-21T21:40:38.399Z,14.70
2023-05-21T21:43:09.014Z,13.30
2023-05-21T21:45:42.559Z,14.40
2023-05-21T21:48:13.103Z,15.90
2023-05-21T21:50:43.760Z,13.20
2023-05-21T21:53:14.449Z,13.50
2023-05-21T21:55:44.921Z,13.10
2023-05-21T21:58:15.622Z,13.80
2023-05-21T22:00:46.313Z,13.20
2023-05-21T22:03:16.887Z,15.00
2023-05-21T22:05:50.610Z,15.10
2023-05-21T22:08:21.329Z,14.30
2023-05-21T22:10:52.505Z,14.90
2023-05-21T22:13:23.051Z,14.80
2023-05-21T22:16:13.932Z,15.20
2023-05-21T22:18:47.497Z,14.10
2023-05-21T22:21:18.446Z,15.30
2023-05-21T22:23:49.204Z,17.10
2023-05-21T22:26:20.243Z,14.90
2023-05-21T22:28:51.478Z,14.00
2023-05-21T22:31:22.101Z,16.00
2023-05-21T22:33:52.841Z,15.00
2023-05-21T22:36:23.620Z,13.40
2023-05-21T22:38:57.469Z,14.80
2023-05-21T22:41:28.028Z,14.00
2023-05-21T22:44:01.664Z,13.10
2023-05-21T22:46:32.301Z,13.50
2023-05-21T22:49:16.390Z,16.10
2023-05-21T22:51:47.048Z,13.80
2023-05-21T22:54:17.582Z,14.20
2023-05-21T22:56:49.284Z,14.40
2023-05-21T22:59:19.792Z,14.10
2023-05-21T23:01:50.757Z,14.60
2023-05-21T23:04:32.227Z,14.80
2023-05-21T23:07:13.224Z,15.40
2023-05-21T23:10:03.973Z,14.90
2023-05-21T23:12:34.492Z,15.30
2023-05-21T23:15:07.406Z,15.90
2023-05-21T23:17:58.214Z,14.20
2023-05-21T23:20:29.087Z,16.70
2023-05-21T23:22:59.505Z,15.30
2023-05-21T23:25:30.147Z,14.90
2023-05-21T23:28:01.419Z,13.60
2023-05-21T23:30:31.903Z,15.60
2023-05-21T23:33:05.674Z,16.20
2023-05-21T23:35:37.154Z,15.00
2023-05-21T23:38:07.654Z,14.10
2023-05-21T23:40:41.075Z,16.00
2023-05-21T23:43:14.509Z,15.60
2023-05-21T23:45:54.060Z,16.10
2023-05-21T23:48:27.613Z,15.90
2023-05-21T23:50:58.269Z,13.70
2023-05-21T23:53:31.437Z,15.60
2023-05-21T23:56:05.645Z,14.10
